Axtell, Nebraska
Current Conditions -  °F | °C
As of 10:35 PM on Sunday 21 Dec 2014 (Local Time) from KHDE Reporting Station
Haze Haze  
Wind Chill: 32°   Ceiling: 800
Heat Index: 39°   Visibility: 5mi
Dew Point: 38°   Wind: 12mph
Humidity: 93%   Direction: 180°S
Pressure: 29.52"   Gusts: NA
Location:  40.48°N, 99.13°W
Report Text: KHDE 220435Z AUTO 18010KT 5SM BR OVC008 04/03 A2952 RMK AO2 T00410031
Loading
Personal Weather Stations






























Interactive Weather Map New forecast layout! Learn more

10-Day Weather Forecast

Advertisements
Track Severe Weather on mobile